createdAt,value
2023-05-15T00:00:44.626Z,343.66
2023-05-15T00:06:09.571Z,345.81
2023-05-15T00:11:02.365Z,348.35
2023-05-15T00:16:01.948Z,349.08
2023-05-15T00:21:01.851Z,350.56
2023-05-15T00:26:01.767Z,351.30
2023-05-15T00:31:01.822Z,355.06
2023-05-15T00:36:01.650Z,357.35
2023-05-15T00:41:01.622Z,355.06
2023-05-15T00:46:01.549Z,357.74
2023-05-15T00:51:01.479Z,356.97
2023-05-15T00:56:01.402Z,356.97
2023-05-15T01:01:01.366Z,358.51
2023-05-15T01:06:01.244Z,358.51
2023-05-15T01:11:01.225Z,358.90
2023-05-15T01:16:01.135Z,357.74
2023-05-15T01:21:01.104Z,358.90
2023-05-15T01:26:00.977Z,361.24
2023-05-15T01:31:00.961Z,360.85
2023-05-15T01:36:00.897Z,365.22
2023-05-15T01:41:00.809Z,363.22
2023-05-15T01:46:00.755Z,364.02
2023-05-15T01:51:00.672Z,367.24
2023-05-15T01:56:00.591Z,367.24
2023-05-15T02:01:00.519Z,367.24
2023-05-15T02:06:00.462Z,366.43
2023-05-15T02:11:00.426Z,367.65
2023-05-15T02:16:00.380Z,366.83
2023-05-15T02:21:00.273Z,369.70
2023-05-15T02:26:00.264Z,369.28
2023-05-15T02:31:00.134Z,371.35
2023-05-15T02:36:00.061Z,371.35
2023-05-15T02:41:00.027Z,370.94
2023-05-15T02:45:59.977Z,370.11
2023-05-15T02:50:59.882Z,371.35
2023-05-15T02:55:59.807Z,369.28
2023-05-15T03:00:59.799Z,371.77
2023-05-15T03:05:59.670Z,371.77
2023-05-15T03:10:59.615Z,374.28
2023-05-15T03:15:59.527Z,372.60
2023-05-15T03:20:59.495Z,368.87
2023-05-15T03:25:59.467Z,370.52
2023-05-15T03:30:59.389Z,369.70
2023-05-15T03:35:59.263Z,368.05
2023-05-15T03:40:59.222Z,363.62
2023-05-15T03:45:59.144Z,362.43
2023-05-15T03:50:59.101Z,362.43
2023-05-15T03:55:58.997Z,361.24
2023-05-15T04:00:58.942Z,362.03
2023-05-15T04:05:58.891Z,360.46
2023-05-15T04:10:58.810Z,358.12
2023-05-15T04:16:08.296Z,358.90
2023-05-15T04:21:00.656Z,356.97
2023-05-15T04:26:00.677Z,354.68
2023-05-15T04:31:00.533Z,355.82
2023-05-15T04:36:00.543Z,354.30
2023-05-15T04:41:00.403Z,352.42
2023-05-15T04:46:00.335Z,348.71
2023-05-15T04:51:00.269Z,348.35
2023-05-15T04:56:15.317Z,347.62
2023-05-15T05:01:07.696Z,345.09
2023-05-15T05:06:07.744Z,344.73
2023-05-15T05:11:07.621Z,345.09
2023-05-15T05:16:07.577Z,342.24
2023-05-15T05:21:07.441Z,340.14
2023-05-15T05:26:07.387Z,339.09
2023-05-15T05:31:07.321Z,337.37
2023-05-15T05:36:07.245Z,334.65
2023-05-15T05:41:07.174Z,333.30
2023-05-15T05:46:07.124Z,331.30
2023-05-15T05:51:07.042Z,328.35
2023-05-15T05:56:07.006Z,325.14
2023-05-15T06:01:07.346Z,321.67
2023-05-15T06:06:06.872Z,318.58
2023-05-15T06:11:06.927Z,317.97
2023-05-15T06:16:06.802Z,313.76
2023-05-15T06:21:06.726Z,310.53
2023-05-15T06:26:06.630Z,310.24
2023-05-15T06:31:06.608Z,305.11
2023-05-15T06:36:06.560Z,305.11
2023-05-15T06:41:06.373Z,301.50
2023-05-15T06:46:06.363Z,300.14
2023-05-15T06:51:06.246Z,299.05
2023-05-15T06:56:06.144Z,297.98
2023-05-15T07:01:06.132Z,295.33
2023-05-15T07:06:06.047Z,295.07
2023-05-15T07:11:05.983Z,295.86
2023-05-15T07:16:05.892Z,292.46
2023-05-15T07:21:05.846Z,292.46
2023-05-15T07:26:06.432Z,291.69
2023-05-15T07:31:05.752Z,290.42
2023-05-15T07:36:05.624Z,294.54
2023-05-15T07:41:05.595Z,293.50
2023-05-15T07:46:05.629Z,296.38
2023-05-15T07:51:05.464Z,296.12
2023-05-15T07:56:05.437Z,297.71
2023-05-15T08:01:05.382Z,302.33
2023-05-15T08:06:05.280Z,305.67
2023-05-15T08:11:05.168Z,307.37
2023-05-15T08:16:05.262Z,308.51
2023-05-15T08:21:05.105Z,307.94
2023-05-15T08:26:04.990Z,304.83
2023-05-15T08:31:04.968Z,305.67
2023-05-15T08:36:04.900Z,303.99
2023-05-15T08:41:04.828Z,306.23
2023-05-15T08:46:04.734Z,304.83
2023-05-15T08:51:06.086Z,303.71
2023-05-15T08:56:17.624Z,302.33
2023-05-15T09:01:10.048Z,301.50
2023-05-15T09:06:10.007Z,294.80
2023-05-15T09:11:10.293Z,289.15
2023-05-15T09:16:09.898Z,282.99
2023-05-15T09:21:09.793Z,278.71
2023-05-15T09:26:09.745Z,273.42
2023-05-15T09:31:09.738Z,269.65
2023-05-15T09:36:09.721Z,267.26
2023-05-15T09:41:10.491Z,272.75
2023-05-15T09:46:09.736Z,269.21
2023-05-15T09:51:09.390Z,258.71
2023-05-15T09:56:09.419Z,253.96
2023-05-15T10:01:09.300Z,249.01
2023-05-15T10:06:09.243Z,244.78
2023-05-15T10:11:09.146Z,239.31
2023-05-15T10:16:09.132Z,238.11
2023-05-15T10:21:09.042Z,236.07
2023-05-15T10:26:09.115Z,231.62
2023-05-15T10:31:09.194Z,230.18
2023-05-15T10:36:08.820Z,228.28
2023-05-15T10:41:17.262Z,221.57
2023-05-15T10:46:09.834Z,216.65
2023-05-15T10:51:10.644Z,209.54
2023-05-15T10:56:08.621Z,203.00
2023-05-15T11:01:08.596Z,198.03
2023-05-15T11:06:08.435Z,194.09
2023-05-15T11:11:08.438Z,192.63
2023-05-15T11:16:08.273Z,191.41
2023-05-15T11:21:08.339Z,191.41
2023-05-15T11:26:08.264Z,188.79
2023-05-15T11:31:08.225Z,192.07
2023-05-15T11:36:08.035Z,191.18
2023-05-15T11:41:08.113Z,189.65
2023-05-15T11:46:08.091Z,188.04
2023-05-15T11:51:08.000Z,187.30
2023-05-15T11:56:07.854Z,187.30
2023-05-15T12:01:09.177Z,190.64
2023-05-15T12:06:07.654Z,191.07
2023-05-15T12:11:07.565Z,191.41
2023-05-15T12:16:07.586Z,191.07
2023-05-15T12:21:07.451Z,193.53
2023-05-15T12:26:07.453Z,194.32
2023-05-15T12:31:07.396Z,192.96
2023-05-15T12:36:07.418Z,192.29
2023-05-15T12:41:07.144Z,192.63
2023-05-15T12:46:07.251Z,191.96
2023-05-15T12:51:07.165Z,193.53
2023-05-15T12:56:07.157Z,195.01
2023-05-15T13:01:06.964Z,197.32
2023-05-15T13:06:06.837Z,200.42
2023-05-15T13:11:06.883Z,201.52
2023-05-15T13:16:08.275Z,201.27
2023-05-15T13:21:06.672Z,204.37
2023-05-15T13:26:06.622Z,204.75
2023-05-15T13:31:06.523Z,207.18
2023-05-15T13:36:06.470Z,209.80
2023-05-15T13:41:06.430Z,211.68
2023-05-15T13:46:06.344Z,211.81
2023-05-15T13:51:06.229Z,215.39
2023-05-15T13:56:06.285Z,219.37
2023-05-15T14:01:06.139Z,220.25
2023-05-15T14:06:06.042Z,221.87
2023-05-15T14:11:06.022Z,224.72
2023-05-15T14:16:06.014Z,226.41
2023-05-15T14:21:05.921Z,228.91
2023-05-15T14:26:05.801Z,232.44
2023-05-15T14:31:05.696Z,237.09
2023-05-15T14:36:05.687Z,237.94
2023-05-15T14:41:05.827Z,238.96
2023-05-15T14:46:05.562Z,238.45
2023-05-15T14:51:05.470Z,239.83
2023-05-15T14:56:05.381Z,241.57
2023-05-15T15:01:05.326Z,244.78
2023-05-15T15:06:05.280Z,247.52
2023-05-15T15:11:05.176Z,247.71
2023-05-15T15:16:05.172Z,250.13
2023-05-15T15:21:05.056Z,251.46
2023-05-15T15:26:05.021Z,254.35
2023-05-15T15:31:04.942Z,257.71
2023-05-15T15:36:04.841Z,261.16
2023-05-15T15:41:04.853Z,264.07
2023-05-15T15:46:04.808Z,262.19
2023-05-15T15:51:04.655Z,268.56
2023-05-15T15:56:04.618Z,272.75
2023-05-15T16:01:04.615Z,270.31
2023-05-15T16:06:04.469Z,271.64
2023-05-15T16:11:04.392Z,273.88
2023-05-15T16:16:04.298Z,276.16
2023-05-15T16:21:04.254Z,277.31
2023-05-15T16:26:04.203Z,278.71
2023-05-15T16:31:04.168Z,275.70
2023-05-15T16:36:04.051Z,279.18
2023-05-15T16:41:04.040Z,286.16
2023-05-15T16:46:03.953Z,291.44
2023-05-15T16:51:03.884Z,291.69
2023-05-15T16:56:04.033Z,295.86
2023-05-15T17:01:03.763Z,297.71
2023-05-15T17:06:03.629Z,303.15
2023-05-15T17:11:03.609Z,306.80
2023-05-15T17:16:03.563Z,307.08
2023-05-15T17:21:03.448Z,308.80
2023-05-15T17:26:03.386Z,313.17
2023-05-15T17:31:03.512Z,309.66
2023-05-15T17:36:03.391Z,313.17
2023-05-15T17:41:03.338Z,312.28
2023-05-15T17:46:03.220Z,313.46
2023-05-15T17:51:03.130Z,315.25
2023-05-15T17:56:02.992Z,316.76
2023-05-15T18:01:02.975Z,320.43
2023-05-15T18:06:02.930Z,328.03
2023-05-15T18:11:11.109Z,329.33
2023-05-15T18:16:03.779Z,330.97
2023-05-15T18:21:02.742Z,333.30
2023-05-15T18:26:02.680Z,339.09
2023-05-15T18:31:02.628Z,340.14
2023-05-15T18:36:02.892Z,342.24
2023-05-15T18:41:02.455Z,341.18
2023-05-15T18:46:02.367Z,347.98
2023-05-15T18:51:02.298Z,347.62
2023-05-15T18:56:02.195Z,346.89
2023-05-15T19:01:02.283Z,346.53
2023-05-15T19:06:02.240Z,345.09
2023-05-15T19:11:02.017Z,348.35
2023-05-15T19:16:01.967Z,347.26
2023-05-15T19:21:01.941Z,348.71
2023-05-15T19:26:01.837Z,347.62
2023-05-15T19:31:01.781Z,342.59
2023-05-15T19:36:01.661Z,342.24
2023-05-15T19:41:01.646Z,343.30
2023-05-15T19:46:01.611Z,350.19
2023-05-15T19:51:01.506Z,347.62
2023-05-15T19:56:01.432Z,348.71
2023-05-15T20:01:01.381Z,347.98
2023-05-15T20:06:01.287Z,346.17
2023-05-15T20:11:01.231Z,348.35
2023-05-15T20:16:01.252Z,350.93
2023-05-15T20:21:01.091Z,355.06
2023-05-15T20:26:01.097Z,357.74
2023-05-15T20:31:00.994Z,361.24
2023-05-15T20:36:00.909Z,366.83
2023-05-15T20:41:00.866Z,370.11
2023-05-15T20:46:00.877Z,374.28
2023-05-15T20:51:00.663Z,382.27
2023-05-15T20:56:00.625Z,381.40
2023-05-15T21:01:00.580Z,381.19
2023-05-15T21:06:00.489Z,381.84
2023-05-15T21:11:00.430Z,379.26
2023-05-15T21:16:00.434Z,374.28
2023-05-15T21:21:00.315Z,373.02
2023-05-15T21:26:00.216Z,367.24
2023-05-15T21:31:00.205Z,367.24
2023-05-15T21:36:00.090Z,362.43
2023-05-15T21:41:00.064Z,360.07
2023-05-15T21:46:00.040Z,362.82
2023-05-15T21:50:59.903Z,364.02
2023-05-15T21:55:59.845Z,365.22
2023-05-15T22:00:59.754Z,370.52
2023-05-15T22:05:59.691Z,374.71
2023-05-15T22:10:59.620Z,379.26
2023-05-15T22:15:59.603Z,386.43
2023-05-15T22:20:59.522Z,391.82
2023-05-15T22:25:59.404Z,393.65
2023-05-15T22:30:59.355Z,397.83
2023-05-15T22:35:59.274Z,397.60
2023-05-15T22:40:59.168Z,398.30
2023-05-15T22:45:59.234Z,398.30
2023-05-15T22:50:59.111Z,398.30
2023-05-15T22:55:59.002Z,400.91
2023-05-15T23:00:59.054Z,399.95
2023-05-15T23:05:58.902Z,395.73
2023-05-15T23:10:58.815Z,395.04
2023-05-15T23:15:58.804Z,388.88
2023-05-15T23:20:58.677Z,389.33
2023-05-15T23:25:58.617Z,385.33
2023-05-15T23:30:58.543Z,391.59
2023-05-15T23:35:58.525Z,392.28
2023-05-15T23:40:58.413Z,397.60
2023-05-15T23:45:58.387Z,401.86
2023-05-15T23:50:58.298Z,401.14
2023-05-15T23:55:58.233Z,400.19
